Stations météo

Publicité
Valencia Airport, Espagne (2008284): Température de l'air & dewpoint: 20.01.2020 01:00:00 - 26.01.2020 01:00:00 (CET)Valencia Airport, Espagne (2008284): Vitesse du vent: 20.01.2020 01:00:00 - 26.01.2020 01:00:00 (CET)Valencia Airport, Espagne (2008284): Direction du vent: 20.01.2020 01:00:00 - 26.01.2020 01:00:00 (CET)Valencia Airport, Espagne (2008284): visibility: 20.01.2020 01:00:00 - 26.01.2020 01:00:00 (CET)
Date & Time tt [°C] td [°C] ff [km/h] ff [knt] dd vv [km]
26.01.2020 01:00:00 11,0 10,0 2 1 NW 10
26.01.2020 00:00:00 11,0 10,0 8 4 NW 10
25.01.2020 23:00:00 12,0 11,0 9 5 NW 10
25.01.2020 22:00:00 12,0 11,0 0 0 N 8
25.01.2020 21:00:00 13,0 11,0 2 1 - 9
25.01.2020 20:00:00 13,0 12,0 8 4 - 9
25.01.2020 19:00:00 13,0 12,0 8 4 E 9
25.01.2020 18:00:00 13,0 11,0 9 5 ESE 10
25.01.2020 17:00:00 13,0 12,0 11 6 E 9
25.01.2020 16:00:00 14,0 11,0 15 8 E 10
25.01.2020 15:00:00 14,0 11,0 13 7 ENE 10
25.01.2020 14:00:00 14,0 11,0 15 8 ENE 10
25.01.2020 13:00:00 14,0 10,0 11 6 ENE 10
25.01.2020 12:00:00 14,0 10,0 5 3 ENE 10
25.01.2020 11:00:00 13,0 10,0 9 5 NW 10
25.01.2020 10:00:00 11,0 11,0 4 2 - 10
25.01.2020 09:00:00 11,0 10,0 5 3 WNW 10
25.01.2020 08:00:00 10,0 10,0 4 2 WNW 9
25.01.2020 07:00:00 10,0 9,0 4 2 W 9
25.01.2020 06:00:00 10,0 9,0 5 3 W 8
25.01.2020 05:00:00 10,0 10,0 2 1 - 8
25.01.2020 04:00:00 11,0 10,0 5 3 WNW 8
25.01.2020 03:00:00 10,0 9,0 4 2 NNW 8
25.01.2020 02:00:00 11,0 10,0 8 4 N 8
25.01.2020 01:00:00 11,0 10,0 8 4 W 9
25.01.2020 00:00:00 11,0 10,0 5 3 NW 9
24.01.2020 23:00:00 11,0 10,0 5 3 NNW 9
24.01.2020 22:00:00 12,0 10,0 8 4 NW 10
24.01.2020 21:00:00 11,0 10,0 4 2 W 10
24.01.2020 20:00:00 12,0 10,0 4 2 SE 10
24.01.2020 19:00:00 13,0 10,0 8 4 SSE 10
24.01.2020 18:00:00 13,0 10,0 11 6 SE 10
24.01.2020 17:00:00 15,0 9,0 0 0 N 10
24.01.2020 16:00:00 15,0 9,0 2 1 - 10
24.01.2020 15:00:00 14,0 9,0 4 2 - 10
24.01.2020 14:00:00 14,0 9,0 4 2 - 10
24.01.2020 13:00:00 13,0 11,0 0 0 N 10
24.01.2020 12:00:00 12,0 10,0 5 3 W 10
24.01.2020 11:00:00 11,0 10,0 8 4 NW 10
24.01.2020 10:00:00 9,0 8,0 5 3 NW 10
24.01.2020 09:00:00 8,0 8,0 8 4 NW 10
24.01.2020 08:00:00 8,0 7,0 9 5 NW 9
24.01.2020 07:00:00 8,0 7,0 5 3 WNW 9
24.01.2020 06:00:00 8,0 7,0 5 3 NW 9
24.01.2020 05:00:00 8,0 7,0 8 4 WNW 10
24.01.2020 04:00:00 10,0 9,0 8 4 N 10
24.01.2020 03:00:00 11,0 9,0 8 4 NE 10
24.01.2020 02:00:00 11,0 9,0 9 5 NE 10
24.01.2020 01:00:00 11,0 10,0 8 4 NE 10
24.01.2020 00:00:00 12,0 10,0 5 3 ENE 9
23.01.2020 23:00:00 12,0 11,0 11 6 ENE 7
23.01.2020 22:00:00 12,0 10,0 9 5 ENE 9
23.01.2020 21:00:00 12,0 10,0 9 5 ENE 9
23.01.2020 20:00:00 12,0 10,0 11 6 ENE 10
23.01.2020 19:00:00 12,0 10,0 9 5 ENE 10
23.01.2020 18:00:00 12,0 9,0 11 6 E 10
23.01.2020 17:00:00 13,0 9,0 9 5 E 10
23.01.2020 16:00:00 14,0 9,0 9 5 ESE 10
23.01.2020 15:00:00 14,0 9,0 11 6 ESE 10
23.01.2020 14:00:00 13,0 9,0 8 4 ESE 10
23.01.2020 13:00:00 13,0 7,0 4 2 - 10
23.01.2020 12:00:00 12,0 7,0 0 0 N 10
23.01.2020 11:00:00 10,0 6,0 4 2 - 10
23.01.2020 10:00:00 7,0 5,0 8 4 W 10
23.01.2020 09:00:00 5,0 4,0 5 3 W 10
23.01.2020 08:00:00 4,0 3,0 8 4 WSW 10
23.01.2020 07:00:00 4,0 3,0 8 4 W 10
23.01.2020 06:00:00 5,0 4,0 11 6 W 10
23.01.2020 05:00:00 5,0 4,0 8 4 NW 10
23.01.2020 04:00:00 6,0 5,0 8 4 WNW 10
23.01.2020 03:00:00 6,0 5,0 4 2 W 10
23.01.2020 02:00:00 7,0 6,0 5 3 WSW 10
23.01.2020 01:00:00 8,0 6,0 5 3 N 10
23.01.2020 00:00:00 7,0 6,0 5 3 W 10
22.01.2020 23:00:00 7,0 6,0 8 4 WNW 10
22.01.2020 22:00:00 8,0 7,0 8 4 WNW 10
22.01.2020 21:00:00 9,0 7,0 11 6 WNW 10
22.01.2020 20:00:00 9,0 8,0 18 10 WNW 10
22.01.2020 19:00:00 10,0 7,0 28 15 W 9
22.01.2020 18:00:00 9,0 8,0 11 6 NNE 9
22.01.2020 17:00:00 10,0 8,0 8 4 - 10
22.01.2020 16:00:00 10,0 7,0 21 11 SSW 10
22.01.2020 15:00:00 11,0 7,0 15 8 WSW 10
22.01.2020 14:00:00 11,0 8,0 8 4 SSW 10
22.01.2020 13:00:00 11,0 8,0 9 5 W 10
22.01.2020 12:00:00 12,0 9,0 5 3 WSW 10
22.01.2020 11:00:00 12,0 10,0 5 3 WNW 10
22.01.2020 10:00:00 13,0 10,0 8 4 N 10
22.01.2020 09:00:00 12,0 9,0 16 9 NE 8
22.01.2020 08:00:00 11,0 9,0 22 12 NE 9
22.01.2020 07:00:00 11,0 9,0 18 10 NE 10
22.01.2020 06:00:00 11,0 9,0 16 9 NE 10
22.01.2020 05:00:00 11,0 9,0 16 9 NE 9
22.01.2020 04:00:00 11,0 9,0 21 11 NE 7
22.01.2020 03:00:00 11,0 10,0 15 8 NE 7
22.01.2020 02:00:00 11,0 10,0 8 4 ENE 7
22.01.2020 01:00:00 12,0 10,0 5 3 ENE 7
22.01.2020 00:00:00 12,0 10,0 9 5 NE 7
21.01.2020 23:00:00 11,0 10,0 5 3 NNE 6
21.01.2020 22:00:00 12,0 11,0 9 5 E 6
21.01.2020 21:00:00 12,0 10,0 9 5 NE 7
21.01.2020 20:00:00 12,0 10,0 11 6 ENE 7
21.01.2020 19:00:00 13,0 10,0 18 10 NE 7
21.01.2020 18:00:00 12,0 10,0 22 12 NNE 8
21.01.2020 17:00:00 12,0 10,0 26 14 NNE 9
21.01.2020 16:00:00 8,0 7,0 22 12 NNW 10
21.01.2020 15:00:00 10,0 9,0 11 6 NW 10
21.01.2020 14:00:00 11,0 10,0 9 5 NW 10
21.01.2020 13:00:00 10,0 9,0 22 12 SSE 4,0
21.01.2020 12:00:00 10,0 9,0 8 4 ENE 3,5
21.01.2020 11:00:00 10,0 9,0 21 11 E 3,5
21.01.2020 10:00:00 12,0 11,0 34 18 NNE 7
21.01.2020 09:00:00 10,0 9,0 21 11 N 10
21.01.2020 08:00:00 10,0 8,0 24 13 NNE 8
21.01.2020 07:00:00 10,0 8,0 34 18 N 10
21.01.2020 06:00:00 10,0 7,0 34 18 NNE 10
21.01.2020 05:00:00 9,0 7,0 37 20 NNE 10
21.01.2020 04:00:00 10,0 7,0 31 17 NNE 10
21.01.2020 03:00:00 10,0 7,0 31 17 NNE 10
21.01.2020 02:00:00 10,0 7,0 22 12 NNE 10
21.01.2020 01:00:00 8,0 7,0 13 7 - 10
21.01.2020 00:00:00 8,0 7,0 29 16 NNE 4,0
20.01.2020 23:00:00 9,0 6,0 41 22 NNE 10
20.01.2020 22:00:00 9,0 6,0 41 22 NNE 10
20.01.2020 21:00:00 9,0 6,0 44 24 NNE 10
20.01.2020 20:00:00 8,0 6,0 34 18 NNE 6
20.01.2020 19:00:00 8,0 6,0 42 23 NNE 9
20.01.2020 18:00:00 8,0 6,0 50 27 NNE 7
20.01.2020 17:00:00 9,0 5,0 44 24 NNE 10
20.01.2020 16:00:00 10,0 4,0 55 30 NNE 10
20.01.2020 15:00:00 10,0 4,0 48 26 NNE 10
20.01.2020 14:00:00 9,0 4,0 48 26 NNE 10
20.01.2020 13:00:00 9,0 4,0 50 27 NNE 10
20.01.2020 12:00:00 8,0 4,0 42 23 NE 10
20.01.2020 11:00:00 8,0 4,0 44 24 NNE 10
20.01.2020 10:00:00 8,0 3,0 41 22 NNE 10
20.01.2020 09:00:00 7,0 3,0 42 23 NNE 10
20.01.2020 08:00:00 7,0 3,0 35 19 NNE 10
20.01.2020 07:00:00 6,0 3,0 28 15 NNE 10
20.01.2020 06:00:00 6,0 2,0 26 14 NNE 10
20.01.2020 05:00:00 7,0 2,0 24 13 NNE 10
20.01.2020 04:00:00 6,0 2,0 26 14 N 10
20.01.2020 03:00:00 7,0 3,0 34 18 NNE 10
20.01.2020 02:00:00 7,0 3,0 26 14 NNE 10
20.01.2020 01:00:00 9,0 2,0 35 19 NNE 10

tt = Température de l'air
td = dewpoint
ff = Vitesse du vent
dd = Direction du vent
vv = visibility

stations d'obs. à proximité